Foxport, Kentucky
Current Conditions -  °F | °C
As of 6:30 PM on Tuesday 25 Nov 2014 (Local Time) from KSYM Reporting Station
Clear Clear  
Wind Chill: 37°   Ceiling: Unl
Heat Index: 41°   Visibility: 10mi
Dew Point: 28°   Wind: 6mph
Humidity: 61%   Direction: 320°NW
Pressure: 30.14"   Gusts: NA
Location:  38.3421°N, 83.5593°W
Report Text: KSYM 252330Z AUTO 32005KT 10SM CLR 05/M02 A3014 RMK AO2
Loading
Personal Weather Stations






























Interactive Weather Map New forecast layout! Learn more

10-Day Weather Forecast

Advertisements
Track Severe Weather on mobile